Time,TemperatureF,DewpointF,PressureIn,WindDirection,WindDirectionDegrees,WindSpeedMPH,WindSpeedGustMPH,Humidity,HourlyPrecipIn,Conditions,Clouds,dailyrainin,SoftwareType,DateUTC
2013-01-14 00:04:00,3.6,-0.4,30.03,WNW,302,0.0,0.0,83,0.00,-RA,OVC,0.00,WeatherDisplay:10.37,2013-01-14 07:04:00,
2013-01-14 00:09:00,3.5,-0.8,30.03,WNW,302,0.0,0.0,82,0.00,-RA,OVC,0.00,WeatherDisplay:10.37,2013-01-14 07:09:00,
2013-01-14 00:14:00,3.3,-0.7,30.03,WNW,302,0.0,0.0,83,0.00,-RA,OVC,0.00,WeatherDisplay:10.37,2013-01-14 07:14:00,
2013-01-14 00:19:00,3.2,-1.1,30.03,WNW,302,0.0,0.0,82,0.00,-RA,OVC,0.00,WeatherDisplay:10.37,2013-01-14 07:19:00,
2013-01-14 00:24:00,3.1,-1.2,30.03,WNW,302,0.0,0.0,82,0.00,-RA,OVC,0.00,WeatherDisplay:10.37,2013-01-14 07:24:00,
2013-01-14 00:29:00,3.0,-1.0,30.03,WNW,302,0.0,0.0,83,0.00,-RA,OVC,0.00,WeatherDisplay:10.37,2013-01-14 07:29:00,
2013-01-14 00:34:00,3.0,-1.0,30.03,WNW,302,0.0,0.0,83,0.00,-RA,OVC,0.00,WeatherDisplay:10.37,2013-01-14 07:34:00,
2013-01-14 00:39:00,3.0,-1.0,30.03,WNW,302,0.0,0.0,83,0.00,-RA,OVC,0.00,WeatherDisplay:10.37,2013-01-14 07:39:00,
2013-01-14 00:44:00,2.9,-1.1,30.03,WNW,302,0.0,0.0,83,0.00,-RA,OVC,0.00,WeatherDisplay:10.37,2013-01-14 07:44:00,
2013-01-14 00:49:00,2.9,-1.1,30.03,WNW,302,0.0,0.0,83,0.00,-RA,OVC,0.00,WeatherDisplay:10.37,2013-01-14 07:49:00,
2013-01-14 00:54:00,2.9,-1.1,30.03,WNW,302,0.0,0.0,83,0.00,-RA,OVC,0.00,WeatherDisplay:10.37,2013-01-14 07:54:00,
2013-01-14 00:59:00,2.8,-1.4,30.03,WNW,302,0.0,0.0,82,0.00,-RA,OVC,0.00,WeatherDisplay:10.37,2013-01-14 07:59:00,
2013-01-14 01:04:00,2.8,-1.2,30.03,WNW,302,0.0,0.0,83,0.00,-RA,OVC,0.00,WeatherDisplay:10.37,2013-01-14 08:04:00,
2013-01-14 01:09:00,2.8,-1.2,30.03,WNW,302,0.0,0.0,83,0.00,-RA,OVC,0.00,WeatherDisplay:10.37,2013-01-14 08:09:00,
2013-01-14 01:14:00,2.7,-1.3,30.03,WNW,302,0.0,0.0,83,0.00,-RA,OVC,0.00,WeatherDisplay:10.37,2013-01-14 08:14:00,
2013-01-14 01:19:00,2.7,-1.3,30.03,WNW,302,0.0,0.0,83,0.00,-RA,OVC,0.00,WeatherDisplay:10.37,2013-01-14 08:19:00,
2013-01-14 01:24:00,2.6,-1.4,30.03,WNW,302,0.0,0.0,83,0.00,-RA,OVC,0.00,WeatherDisplay:10.37,2013-01-14 08:24:00,
2013-01-14 01:29:00,2.6,-1.4,30.03,WNW,302,0.0,0.0,83,0.00,-RA,OVC,0.00,WeatherDisplay:10.37,2013-01-14 08:29:00,
2013-01-14 01:34:00,2.6,-1.4,30.03,WNW,302,0.0,0.0,83,0.00,-RA,OVC,0.00,WeatherDisplay:10.37,2013-01-14 08:34:00,
2013-01-14 01:39:00,2.5,-1.7,30.03,WNW,302,0.0,0.0,82,0.00,-RA,OVC,0.00,WeatherDisplay:10.37,2013-01-14 08:39:00,
2013-01-14 01:44:00,2.3,-1.9,30.03,WNW,302,0.0,0.0,82,0.00,-RA,OVC,0.00,WeatherDisplay:10.37,2013-01-14 08:44:00,
2013-01-14 01:49:00,2.1,-2.1,30.03,WNW,302,0.0,0.0,82,0.00,-RA,OVC,0.00,WeatherDisplay:10.37,2013-01-14 08:49:00,
2013-01-14 01:54:00,1.9,-2.3,30.03,WNW,302,0.0,0.0,82,0.00,-RA,OVC,0.00,WeatherDisplay:10.37,2013-01-14 08:54:00,
2013-01-14 01:59:00,1.8,-2.4,30.03,WNW,302,0.0,0.0,82,0.00,-RA,OVC,0.00,WeatherDisplay:10.37,2013-01-14 08:59:00,
2013-01-14 02:04:00,1.7,-2.5,30.03,WNW,302,0.0,0.0,82,0.00,-RA,OVC,0.00,WeatherDisplay:10.37,2013-01-14 09:04:00,
2013-01-14 02:09:00,1.6,-2.6,30.03,WNW,302,0.0,0.0,82,0.00,-RA,OVC,0.00,WeatherDisplay:10.37,2013-01-14 09:09:00,
2013-01-14 02:14:00,1.6,-2.6,30.03,WNW,302,0.0,0.0,82,0.00,-RA,OVC,0.00,WeatherDisplay:10.37,2013-01-14 09:14:00,
2013-01-14 02:19:00,1.5,-2.7,30.03,WNW,302,0.0,0.0,82,0.00,-RA,OVC,0.00,WeatherDisplay:10.37,2013-01-14 09:19:00,
2013-01-14 02:24:00,1.7,-2.3,30.03,WNW,302,0.0,0.0,83,0.00,-RA,OVC,0.00,WeatherDisplay:10.37,2013-01-14 09:24:00,
2013-01-14 02:29:00,2.0,-2.2,30.03,WNW,302,0.0,0.0,82,0.00,-RA,OVC,0.00,WeatherDisplay:10.37,2013-01-14 09:29:00,
2013-01-14 02:34:00,2.3,-1.9,30.03,WNW,302,0.0,0.0,82,0.00,-RA,OVC,0.00,WeatherDisplay:10.37,2013-01-14 09:34:00,
2013-01-14 02:39:00,2.4,-2.1,30.03,WNW,302,1.1,1.1,81,0.00,-RA,OVC,0.00,WeatherDisplay:10.37,2013-01-14 09:39:00,
2013-01-14 02:44:00,2.8,-1.7,30.03,WNW,302,2.3,2.3,81,0.00,-RA,OVC,0.00,WeatherDisplay:10.37,2013-01-14 09:44:00,
2013-01-14 02:49:00,3.2,-1.8,30.03,WNW,302,0.0,0.0,79,0.00,-RA,OVC,0.00,WeatherDisplay:10.37,2013-01-14 09:49:00,
2013-01-14 02:54:00,3.5,-1.8,30.03,WNW,302,0.0,0.0,78,0.00,-RA,OVC,0.00,WeatherDisplay:10.37,2013-01-14 09:54:00,
2013-01-14 02:59:00,3.7,-1.6,30.03,WNW,302,0.0,0.0,78,0.00,-RA,OVC,0.00,WeatherDisplay:10.37,2013-01-14 09:59:00,
2013-01-14 03:04:00,3.6,-2.0,30.03,WNW,302,0.0,0.0,77,0.00,-RA,OVC,0.00,WeatherDisplay:10.37,2013-01-14 10:04:00,
2013-01-14 03:09:00,3.5,-2.1,30.03,WNW,302,0.0,0.0,77,0.00,-RA,OVC,0.00,WeatherDisplay:10.37,2013-01-14 10:09:00,
2013-01-14 03:14:00,3.2,-2.1,30.03,WNW,302,0.0,0.0,78,0.00,-RA,OVC,0.00,WeatherDisplay:10.37,2013-01-14 10:14:00,
2013-01-14 03:19:00,3.0,-2.3,30.03,WNW,302,0.0,0.0,78,0.00,-RA,OVC,0.00,WeatherDisplay:10.37,2013-01-14 10:19:00,
2013-01-14 03:24:00,2.9,-2.1,30.03,WNW,302,0.0,0.0,79,0.00,-RA,OVC,0.00,WeatherDisplay:10.37,2013-01-14 10:24:00,
2013-01-14 03:29:00,3.0,-1.8,30.03,WNW,302,1.1,1.1,80,0.00,-RA,OVC,0.00,WeatherDisplay:10.37,2013-01-14 10:29:00,
2013-01-14 03:34:00,3.4,-1.4,30.03,WNW,302,0.0,0.0,80,0.00,-RA,OVC,0.00,WeatherDisplay:10.37,2013-01-14 10:34:00,
2013-01-14 03:39:00,3.7,-1.6,30.03,WNW,302,1.1,1.1,78,0.00,-RA,OVC,0.00,WeatherDisplay:10.37,2013-01-14 10:39:00,
2013-01-14 03:44:00,4.1,-1.5,30.03,WNW,301,0.0,0.0,77,0.00,-RA,OVC,0.00,WeatherDisplay:10.37,2013-01-14 10:44:00,
2013-01-14 03:49:00,4.3,-1.6,30.03,WNW,301,0.0,0.0,76,0.00,-RA,OVC,0.00,WeatherDisplay:10.37,2013-01-14 10:49:00,
2013-01-14 03:54:00,4.5,-1.4,30.03,WNW,297,1.1,1.1,76,0.00,-RA,OVC,0.00,WeatherDisplay:10.37,2013-01-14 10:54:00,
2013-01-14 03:59:00,4.7,-1.5,30.03,WNW,296,3.5,3.5,75,0.00,-RA,OVC,0.00,WeatherDisplay:10.37,2013-01-14 10:59:00,
2013-01-14 04:04:00,4.9,-1.9,30.03,WNW,294,3.5,3.5,73,0.00,-RA,OVC,0.00,WeatherDisplay:10.37,2013-01-14 11:04:00,
2013-01-14 04:09:00,5.0,-1.8,30.03,WNW,293,3.5,3.5,73,0.00,-RA,OVC,0.00,WeatherDisplay:10.37,2013-01-14 11:09:00,
2013-01-14 04:14:00,5.0,-2.1,30.03,WNW,292,2.3,2.3,72,0.00,-RA,OVC,0.00,WeatherDisplay:10.37,2013-01-14 11:14:00,
2013-01-14 04:19:00,5.1,-2.0,30.03,WNW,292,3.5,3.5,72,0.00,-RA,OVC,0.00,WeatherDisplay:10.37,2013-01-14 11:19:00,
2013-01-14 04:24:00,5.1,-2.0,30.02,WNW,292,2.3,2.3,72,0.00,-RA,OVC,0.00,WeatherDisplay:10.37,2013-01-14 11:24:00,
2013-01-14 04:29:00,5.2,-2.2,30.02,WNW,292,3.5,3.5,71,0.00,-RA,OVC,0.00,WeatherDisplay:10.37,2013-01-14 11:29:00,
2013-01-14 04:34:00,5.3,-2.1,30.02,WNW,292,0.0,0.0,71,0.00,-RA,OVC,0.00,WeatherDisplay:10.37,2013-01-14 11:34:00,
2013-01-14 04:39:00,5.4,-2.0,30.02,WNW,292,0.0,0.0,71,0.00,-RA,OVC,0.00,WeatherDisplay:10.37,2013-01-14 11:39:00,
2013-01-14 04:44:00,5.4,-1.7,30.02,WNW,292,1.1,0.0,72,0.00,-RA,OVC,0.00,WeatherDisplay:10.37,2013-01-14 11:44:00,
2013-01-14 04:49:00,5.5,-1.9,30.02,WNW,292,2.3,2.3,71,0.00,-RA,OVC,0.00,WeatherDisplay:10.37,2013-01-14 11:49:00,
2013-01-14 04:54:00,5.6,-1.5,30.02,WNW,292,0.0,0.0,72,0.00,-RA,OVC,0.00,WeatherDisplay:10.37,2013-01-14 11:54:00,
2013-01-14 04:59:00,5.7,-1.4,30.02,WNW,292,3.5,3.5,72,0.00,-RA,OVC,0.00,WeatherDisplay:10.37,2013-01-14 11:59:00,
2013-01-14 05:04:00,5.8,-1.6,30.02,WNW,292,3.5,3.5,71,0.00,-RA,OVC,0.00,WeatherDisplay:10.37,2013-01-14 12:04:00,
2013-01-14 05:09:00,5.8,-1.6,30.02,WNW,292,0.0,0.0,71,0.00,-RA,OVC,0.00,WeatherDisplay:10.37,2013-01-14 12:09:00,
2013-01-14 05:14:00,5.8,-1.6,30.03,WNW,292,1.1,0.0,71,0.00,-RA,OVC,0.00,WeatherDisplay:10.37,2013-01-14 12:14:00,
2013-01-14 05:19:00,5.8,-1.6,30.03,WNW,292,0.0,0.0,71,0.00,-RA,OVC,0.00,WeatherDisplay:10.37,2013-01-14 12:19:00,
2013-01-14 05:24:00,5.7,-1.7,30.03,WNW,292,0.0,0.0,71,0.00,-RA,OVC,0.00,WeatherDisplay:10.37,2013-01-14 12:24:00,
2013-01-14 05:29:00,5.7,-1.4,30.03,WNW,292,2.3,2.3,72,0.00,-RA,OVC,0.00,WeatherDisplay:10.37,2013-01-14 12:29:00,
2013-01-14 05:34:00,5.6,-1.5,30.03,WNW,291,2.3,2.3,72,0.00,-RA,OVC,0.00,WeatherDisplay:10.37,2013-01-14 12:34:00,
2013-01-14 05:39:00,5.6,-1.2,30.03,WNW,291,0.0,0.0,73,0.00,-RA,OVC,0.00,WeatherDisplay:10.37,2013-01-14 12:39:00,
2013-01-14 05:44:00,5.5,-1.3,30.03,WNW,291,0.0,0.0,73,0.00,-RA,OVC,0.00,WeatherDisplay:10.37,2013-01-14 12:44:00,
2013-01-14 05:49:00,5.4,-1.4,30.03,WNW,291,0.0,0.0,73,0.00,-RA,OVC,0.00,WeatherDisplay:10.37,2013-01-14 12:49:00,
2013-01-14 05:54:00,5.4,-1.4,30.03,WNW,291,0.0,0.0,73,0.00,-RA,OVC,0.00,WeatherDisplay:10.37,2013-01-14 12:54:00,
2013-01-14 05:59:00,5.3,-1.8,30.03,WNW,291,0.0,0.0,72,0.00,-RA,OVC,0.00,WeatherDisplay:10.37,2013-01-14 12:59:00,
2013-01-14 06:04:00,5.3,-1.8,30.03,WNW,291,0.0,0.0,72,0.00,-RA,OVC,0.00,WeatherDisplay:10.37,2013-01-14 13:04:00,
2013-01-14 06:09:00,5.3,-1.5,30.03,WNW,291,0.0,0.0,73,0.00,-RA,OVC,0.00,WeatherDisplay:10.37,2013-01-14 13:09:00,
2013-01-14 06:14:00,5.2,-1.6,30.03,WNW,291,0.0,0.0,73,0.00,-RA,OVC,0.00,WeatherDisplay:10.37,2013-01-14 13:14:00,
2013-01-14 06:19:00,5.2,-1.3,30.03,WNW,291,0.0,0.0,74,0.00,-RA,OVC,0.00,WeatherDisplay:10.37,2013-01-14 13:19:00,
2013-01-14 06:24:00,5.3,-0.9,30.03,WNW,290,1.1,1.1,75,0.00,-RA,OVC,0.00,WeatherDisplay:10.37,2013-01-14 13:24:00,
2013-01-14 06:29:00,5.3,-1.2,30.03,WNW,290,0.0,0.0,74,0.00,-RA,OVC,0.00,WeatherDisplay:10.37,2013-01-14 13:29:00,
2013-01-14 06:34:00,5.4,-1.1,30.03,WNW,290,0.0,0.0,74,0.00,-RA,OVC,0.00,WeatherDisplay:10.37,2013-01-14 13:34:00,
2013-01-14 06:39:00,5.4,-1.1,30.03,WNW,290,0.0,0.0,74,0.00,-RA,OVC,0.00,WeatherDisplay:10.37,2013-01-14 13:39:00,
2013-01-14 06:44:00,5.4,-1.1,30.05,WNW,290,0.0,0.0,74,0.00,-RA,OVC,0.00,WeatherDisplay:10.37,2013-01-14 13:44:00,
2013-01-14 06:49:00,5.3,-1.2,30.05,WNW,290,0.0,0.0,74,0.00,-RA,OVC,0.00,WeatherDisplay:10.37,2013-01-14 13:49:00,
2013-01-14 06:54:00,5.2,-1.3,30.05,WNW,290,0.0,0.0,74,0.00,-RA,OVC,0.00,WeatherDisplay:10.37,2013-01-14 13:54:00,
2013-01-14 06:59:00,5.1,-1.4,30.05,WNW,290,0.0,0.0,74,0.00,-RA,OVC,0.00,WeatherDisplay:10.37,2013-01-14 13:59:00,
2013-01-14 07:04:00,5.0,-1.5,30.06,WNW,290,0.0,0.0,74,0.00,-RA,OVC,0.00,WeatherDisplay:10.37,2013-01-14 14:04:00,
2013-01-14 07:09:00,4.9,-1.6,30.06,WNW,290,0.0,0.0,74,0.00,-RA,OVC,0.00,WeatherDisplay:10.37,2013-01-14 14:09:00,
2013-01-14 07:14:00,4.7,-1.8,30.06,WNW,290,0.0,0.0,74,0.00,-RA,OVC,0.00,WeatherDisplay:10.37,2013-01-14 14:14:00,
2013-01-14 07:19:00,4.5,-2.0,30.06,WNW,290,0.0,0.0,74,0.00,-RA,OVC,0.00,WeatherDisplay:10.37,2013-01-14 14:19:00,
2013-01-14 07:24:00,4.3,-1.9,30.06,WNW,290,0.0,0.0,75,0.00,-RA,OVC,0.00,WeatherDisplay:10.37,2013-01-14 14:24:00,
2013-01-14 07:29:00,4.2,-1.7,30.06,WNW,290,1.1,1.1,76,0.00,-RA,OVC,0.00,WeatherDisplay:10.37,2013-01-14 14:29:00,
2013-01-14 07:34:00,4.2,-1.4,30.06,WNW,290,0.0,0.0,77,0.00,-RA,OVC,0.00,WeatherDisplay:10.37,2013-01-14 14:34:00,
2013-01-14 07:39:00,4.1,-1.2,30.06,WNW,290,0.0,0.0,78,0.00,-RA,OVC,0.00,WeatherDisplay:10.37,2013-01-14 14:39:00,
2013-01-14 07:44:00,4.0,-1.3,30.06,WNW,290,0.0,0.0,78,0.00,-RA,OVC,0.00,WeatherDisplay:10.37,2013-01-14 14:44:00,
2013-01-14 07:49:00,3.9,-1.4,30.06,WNW,290,0.0,0.0,78,0.00,-RA,OVC,0.00,WeatherDisplay:10.37,2013-01-14 14:49:00,
2013-01-14 07:54:00,3.8,-1.5,30.07,WNW,290,0.0,0.0,78,0.00,-RA,OVC,0.00,WeatherDisplay:10.37,2013-01-14 14:54:00,
2013-01-14 07:59:00,3.9,-1.2,30.07,WNW,290,0.0,0.0,79,0.00,-RA,OVC,0.00,WeatherDisplay:10.37,2013-01-14 14:59:00,
2013-01-14 08:04:00,4.0,-0.8,30.07,WNW,290,0.0,0.0,80,0.00,-RA,OVC,0.00,WeatherDisplay:10.37,2013-01-14 15:04:00,
2013-01-14 08:09:00,4.2,-0.6,30.07,WNW,290,0.0,0.0,80,0.00,-RA,OVC,0.00,WeatherDisplay:10.37,2013-01-14 15:09:00,
2013-01-14 08:14:00,4.6,0.1,30.07,WNW,290,1.1,1.1,81,0.00,-RA,OVC,0.00,WeatherDisplay:10.37,2013-01-14 15:14:00,
2013-01-14 08:19:00,5.1,0.5,30.07,WNW,290,2.3,2.3,81,0.00,-RA,OVC,0.00,WeatherDisplay:10.37,2013-01-14 15:19:00,
2013-01-14 08:24:00,5.5,0.7,30.07,WNW,289,2.3,2.3,80,0.00,-RA,OVC,0.00,WeatherDisplay:10.37,2013-01-14 15:24:00,
2013-01-14 08:29:00,5.8,1.0,30.07,WNW,289,3.5,3.5,80,0.00,-RA,OVC,0.00,WeatherDisplay:10.37,2013-01-14 15:29:00,
2013-01-14 08:34:00,6.0,0.9,30.07,WNW,289,0.0,0.0,79,0.00,-RA,OVC,0.00,WeatherDisplay:10.37,2013-01-14 15:34:00,
2013-01-14 08:39:00,6.3,1.2,30.07,WNW,289,2.3,2.3,79,0.00,-RA,OVC,0.00,WeatherDisplay:10.37,2013-01-14 15:39:00,
2013-01-14 08:44:00,6.5,1.1,30.07,West,264,3.5,3.5,78,0.00,-RA,OVC,0.00,WeatherDisplay:10.37,2013-01-14 15:44:00,
2013-01-14 08:49:00,6.8,1.1,30.07,West,263,2.3,2.3,77,0.00,-RA,OVC,0.00,WeatherDisplay:10.37,2013-01-14 15:49:00,
2013-01-14 08:54:00,6.9,0.9,30.07,WSW,242,1.1,1.1,76,0.00,-RA,OVC,0.00,WeatherDisplay:10.37,2013-01-14 15:54:00,
2013-01-14 08:59:00,7.1,0.6,30.07,SW,221,3.5,3.5,74,0.00,-RA,OVC,0.00,WeatherDisplay:10.37,2013-01-14 15:59:00,
2013-01-14 09:04:00,7.2,0.7,30.07,SW,214,2.3,2.3,74,0.00,-RA,OVC,0.00,WeatherDisplay:10.37,2013-01-14 16:04:00,
2013-01-14 09:09:00,7.4,0.6,30.07,SSW,213,2.3,2.3,73,0.00,-RA,OVC,0.00,WeatherDisplay:10.37,2013-01-14 16:09:00,
2013-01-14 09:14:00,7.4,0.3,30.07,SSW,212,2.3,2.3,72,0.00,-RA,OVC,0.00,WeatherDisplay:10.37,2013-01-14 16:14:00,
2013-01-14 09:19:00,7.5,0.4,30.07,SW,215,3.5,3.5,72,0.00,-RA,OVC,0.00,WeatherDisplay:10.37,2013-01-14 16:19:00,
2013-01-14 09:24:00,7.5,0.4,30.07,SW,214,3.5,3.5,72,0.00,-RA,OVC,0.00,WeatherDisplay:10.37,2013-01-14 16:24:00,
2013-01-14 09:29:00,7.6,0.2,30.07,SW,214,2.3,2.3,71,0.00,-RA,OVC,0.00,WeatherDisplay:10.37,2013-01-14 16:29:00,
2013-01-14 09:34:00,7.7,0.5,30.07,SW,215,3.5,3.5,72,0.00,-RA,OVC,0.00,WeatherDisplay:10.37,2013-01-14 16:34:00,
2013-01-14 09:39:00,8.0,0.8,30.07,SW,215,3.5,3.5,72,0.00,-RA,OVC,0.00,WeatherDisplay:10.37,2013-01-14 16:39:00,
2013-01-14 09:44:00,8.2,1.6,30.07,SW,215,3.5,3.5,74,0.00,-RA,OVC,0.00,WeatherDisplay:10.37,2013-01-14 16:44:00,
2013-01-14 09:49:00,8.2,0.7,30.07,SW,214,3.5,3.5,71,0.00,-RA,OVC,0.00,WeatherDisplay:10.37,2013-01-14 16:49:00,
2013-01-14 09:54:00,8.3,1.1,30.07,SW,217,2.3,2.3,72,0.00,-RA,OVC,0.00,WeatherDisplay:10.37,2013-01-14 16:54:00,
2013-01-14 09:59:00,8.5,1.3,30.07,SSW,212,4.6,4.6,72,0.00,-RA,OVC,0.00,WeatherDisplay:10.37,2013-01-14 16:59:00,
2013-01-14 10:04:00,8.5,1.0,30.07,SSW,210,2.3,2.3,71,0.00,-RA,OVC,0.00,WeatherDisplay:10.37,2013-01-14 17:04:00,
2013-01-14 10:09:00,8.6,1.1,30.07,SSW,209,2.3,2.3,71,0.00,-RA,OVC,0.00,WeatherDisplay:10.37,2013-01-14 17:09:00,
2013-01-14 10:14:00,8.5,0.4,30.07,SSW,209,2.3,2.3,69,0.00,-RA,OVC,0.00,WeatherDisplay:10.37,2013-01-14 17:14:00,
2013-01-14 10:19:00,8.7,1.2,30.07,SSW,204,3.5,3.5,71,0.00,-RA,OVC,0.00,WeatherDisplay:10.37,2013-01-14 17:19:00,
2013-01-14 10:24:00,9.1,1.6,30.07,SSW,203,2.3,2.3,71,0.00,-RA,OVC,0.00,WeatherDisplay:10.37,2013-01-14 17:24:00,
2013-01-14 10:29:00,9.4,1.6,30.07,SSW,204,3.5,3.5,70,0.00,-RA,OVC,0.00,WeatherDisplay:10.37,2013-01-14 17:29:00,
2013-01-14 10:34:00,9.4,1.3,30.07,SSW,200,3.5,3.5,69,0.00,-RA,OVC,0.00,WeatherDisplay:10.37,2013-01-14 17:34:00,
2013-01-14 10:39:00,9.2,1.1,30.07,SSW,207,4.6,4.6,69,0.00,-RA,OVC,0.00,WeatherDisplay:10.37,2013-01-14 17:39:00,
2013-01-14 10:44:00,9.2,1.1,30.07,SSW,205,4.6,4.6,69,0.00,-RA,OVC,0.00,WeatherDisplay:10.37,2013-01-14 17:44:00,
2013-01-14 10:49:00,9.1,0.7,30.07,SSW,205,0.0,0.0,68,0.00,-RA,OVC,0.00,WeatherDisplay:10.37,2013-01-14 17:49:00,
2013-01-14 10:54:00,9.2,1.1,30.07,SSW,205,2.3,2.3,69,0.00,-RA,OVC,0.00,WeatherDisplay:10.37,2013-01-14 17:54:00,
2013-01-14 10:59:00,9.8,1.7,30.07,SSW,208,3.5,3.5,69,0.00,-RA,OVC,0.00,WeatherDisplay:10.37,2013-01-14 17:59:00,
2013-01-14 11:04:00,10.4,2.2,30.07,SSW,213,5.0,5.0,69,0.00,-RA,OVC,0.00,WeatherDisplay:10.37,2013-01-14 18:04:00,
2013-01-14 11:09:00,10.5,2.0,30.07,SSW,211,5.8,5.8,68,0.00,-RA,OVC,0.00,WeatherDisplay:10.37,2013-01-14 18:09:00,
2013-01-14 11:14:00,10.7,2.2,30.04,SW,222,2.3,2.3,68,0.00,-RA,OVC,0.00,WeatherDisplay:10.37,2013-01-14 18:14:00,
2013-01-14 11:19:00,11.0,2.2,30.04,SW,225,0.0,0.0,67,0.00,-RA,OVC,0.00,WeatherDisplay:10.37,2013-01-14 18:19:00,
2013-01-14 11:24:00,11.5,2.3,30.04,SSW,209,5.0,5.0,66,0.00,-RA,OVC,0.00,WeatherDisplay:10.37,2013-01-14 18:24:00,
2013-01-14 11:29:00,11.2,1.0,30.04,SSW,202,4.6,4.6,63,0.00,-RA,OVC,0.00,WeatherDisplay:10.37,2013-01-14 18:29:00,
2013-01-14 11:34:00,11.0,0.9,30.04,SSW,201,3.5,3.5,63,0.00,-RA,OVC,0.00,WeatherDisplay:10.37,2013-01-14 18:34:00,
2013-01-14 11:39:00,11.1,0.9,30.04,SSW,211,3.5,3.5,63,0.00,-RA,OVC,0.00,WeatherDisplay:10.37,2013-01-14 18:39:00,
2013-01-14 11:44:00,11.5,1.3,30.04,SSW,212,0.0,0.0,63,0.00,-RA,OVC,0.00,WeatherDisplay:10.37,2013-01-14 18:44:00,
2013-01-14 11:49:00,12.0,1.8,30.04,SSE,163,5.8,5.8,63,0.00,-RA,OVC,0.00,WeatherDisplay:10.37,2013-01-14 18:49:00,
2013-01-14 11:54:00,12.0,1.5,30.04,SSE,164,2.3,2.3,62,0.00,-RA,OVC,0.00,WeatherDisplay:10.37,2013-01-14 18:54:00,
2013-01-14 11:59:00,12.1,1.6,30.04,SW,219,5.8,5.8,62,0.00,-RA,OVC,0.00,WeatherDisplay:10.37,2013-01-14 18:59:00,
2013-01-14 12:04:00,11.9,1.7,30.04,SW,218,2.3,2.3,63,0.00,-RA,OVC,0.00,WeatherDisplay:10.37,2013-01-14 19:04:00,
2013-01-14 12:09:00,12.5,2.3,30.04,West,267,7.0,7.0,63,0.00,-RA,OVC,0.00,WeatherDisplay:10.37,2013-01-14 19:09:00,
2013-01-14 12:14:00,12.9,2.3,30.00,SW,215,5.8,5.8,62,0.00,-RA,OVC,0.00,WeatherDisplay:10.37,2013-01-14 19:14:00,
2013-01-14 12:19:00,13.0,2.1,30.00,SW,222,3.5,3.5,61,0.00,-RA,OVC,0.00,WeatherDisplay:10.37,2013-01-14 19:19:00,
2013-01-14 12:24:00,13.1,2.2,30.00,West,265,0.0,0.0,61,0.00,-RA,OVC,0.00,WeatherDisplay:10.37,2013-01-14 19:24:00,
2013-01-14 12:29:00,13.7,2.7,30.00,WNW,300,5.0,5.0,61,0.00,-RA,OVC,0.00,WeatherDisplay:10.37,2013-01-14 19:29:00,
2013-01-14 12:34:00,13.8,1.7,29.99,SSW,202,5.8,5.8,58,0.00,-RA,OVC,0.00,WeatherDisplay:10.37,2013-01-14 19:34:00,
2013-01-14 12:39:00,14.0,2.3,29.99,South,173,4.6,4.6,59,0.00,-RA,OVC,0.00,WeatherDisplay:10.37,2013-01-14 19:39:00,
2013-01-14 12:44:00,14.2,2.1,29.99,WSW,252,4.6,4.6,58,0.00,-RA,OVC,0.00,WeatherDisplay:10.37,2013-01-14 19:44:00,
2013-01-14 12:49:00,14.3,2.6,29.99,SSW,212,4.6,4.6,59,0.00,-RA,OVC,0.00,WeatherDisplay:10.37,2013-01-14 19:49:00,
2013-01-14 12:54:00,14.3,2.6,29.99,SSW,212,2.3,2.3,59,0.00,-RA,OVC,0.00,WeatherDisplay:10.37,2013-01-14 19:54:00,
2013-01-14 12:59:00,14.4,2.3,29.99,West,267,3.5,3.5,58,0.00,-RA,OVC,0.00,WeatherDisplay:10.37,2013-01-14 19:59:00,
2013-01-14 13:04:00,14.4,2.3,29.99,ESE,115,4.6,4.6,58,0.00,-RA,OVC,0.00,WeatherDisplay:10.37,2013-01-14 20:04:00,
2013-01-14 13:09:00,14.8,3.0,29.99,ESE,108,3.5,3.5,59,0.00,-RA,OVC,0.00,WeatherDisplay:10.37,2013-01-14 20:09:00,
2013-01-14 13:14:00,15.1,2.6,29.99,WSW,242,4.6,4.6,57,0.00,-RA,OVC,0.00,WeatherDisplay:10.37,2013-01-14 20:14:00,
2013-01-14 13:19:00,15.0,2.9,29.99,SSW,207,5.8,5.8,58,0.00,-RA,OVC,0.00,WeatherDisplay:10.37,2013-01-14 20:19:00,
2013-01-14 13:24:00,14.9,2.8,29.98,SW,233,4.6,4.6,58,0.00,-RA,OVC,0.00,WeatherDisplay:10.37,2013-01-14 20:24:00,
2013-01-14 13:29:00,15.3,2.8,29.98,South,190,3.5,3.5,57,0.00,-RA,OVC,0.00,WeatherDisplay:10.37,2013-01-14 20:29:00,
2013-01-14 13:34:00,15.3,2.8,29.98,South,177,1.1,1.1,57,0.00,-RA,OVC,0.00,WeatherDisplay:10.37,2013-01-14 20:34:00,
2013-01-14 13:39:00,15.3,2.4,29.98,West,278,8.1,8.1,56,0.00,-RA,OVC,0.00,WeatherDisplay:10.37,2013-01-14 20:39:00,
2013-01-14 13:44:00,15.3,2.8,29.98,SW,236,3.5,3.5,57,0.00,-RA,OVC,0.00,WeatherDisplay:10.37,2013-01-14 20:44:00,
2013-01-14 13:49:00,15.3,2.4,29.98,NW,310,0.0,0.0,56,0.00,-RA,OVC,0.00,WeatherDisplay:10.37,2013-01-14 20:49:00,
2013-01-14 13:54:00,15.4,2.5,29.98,SSW,204,5.8,5.8,56,0.00,-RA,OVC,0.00,WeatherDisplay:10.37,2013-01-14 20:54:00,
2013-01-14 13:59:00,15.5,2.6,29.98,South,182,6.9,6.9,56,0.00,-RA,OVC,0.00,WeatherDisplay:10.37,2013-01-14 20:59:00,
2013-01-14 14:04:00,15.5,2.6,29.98,South,184,4.6,4.6,56,0.00,-RA,OVC,0.00,WeatherDisplay:10.37,2013-01-14 21:04:00,
2013-01-14 14:09:00,15.5,2.6,29.98,South,183,4.6,4.6,56,0.00,-RA,OVC,0.00,WeatherDisplay:10.37,2013-01-14 21:09:00,
2013-01-14 14:14:00,15.4,2.5,29.98,SSW,192,4.6,4.6,56,0.00,-RA,OVC,0.00,WeatherDisplay:10.37,2013-01-14 21:14:00,
2013-01-14 14:19:00,15.4,2.9,29.98,SW,236,4.6,4.6,57,0.00,-RA,OVC,0.00,WeatherDisplay:10.37,2013-01-14 21:19:00,
2013-01-14 14:24:00,15.4,2.9,29.99,SW,219,4.6,4.6,57,0.00,-RA,OVC,0.00,WeatherDisplay:10.37,2013-01-14 21:24:00,
2013-01-14 14:29:00,15.5,3.0,29.99,WSW,249,3.5,3.5,57,0.00,-RA,OVC,0.00,WeatherDisplay:10.37,2013-01-14 21:29:00,
2013-01-14 14:34:00,15.7,3.1,29.99,WSW,241,5.8,5.8,57,0.00,-RA,OVC,0.00,WeatherDisplay:10.37,2013-01-14 21:34:00,
2013-01-14 14:39:00,15.5,3.0,29.99,South,178,1.1,1.1,57,0.00,-RA,OVC,0.00,WeatherDisplay:10.37,2013-01-14 21:39:00,
2013-01-14 14:44:00,15.5,3.0,29.99,SSW,213,3.5,3.5,57,0.00,-RA,OVC,0.00,WeatherDisplay:10.37,2013-01-14 21:44:00,
2013-01-14 14:49:00,15.3,3.5,30.00,SW,229,3.5,3.5,59,0.00,-RA,OVC,0.00,WeatherDisplay:10.37,2013-01-14 21:49:00,
2013-01-14 14:54:00,15.1,3.3,30.00,West,263,3.5,3.5,59,0.00,-RA,OVC,0.00,WeatherDisplay:10.37,2013-01-14 21:54:00,
2013-01-14 14:59:00,14.8,3.4,30.00,WSW,247,3.5,3.5,60,0.00,-RA,OVC,0.00,WeatherDisplay:10.37,2013-01-14 21:59:00,
2013-01-14 15:04:00,14.7,3.3,30.00,SSW,199,8.1,8.1,60,0.00,-RA,OVC,0.00,WeatherDisplay:10.37,2013-01-14 22:04:00,
2013-01-14 15:09:00,14.8,3.4,30.00,West,262,4.6,4.6,60,0.00,-RA,OVC,0.00,WeatherDisplay:10.37,2013-01-14 22:09:00,
2013-01-14 15:14:00,14.9,3.1,30.01,SSW,204,3.5,3.5,59,0.00,-RA,OVC,0.00,WeatherDisplay:10.37,2013-01-14 22:14:00,
2013-01-14 15:19:00,15.0,3.2,30.01,SW,233,2.3,2.3,59,0.00,-RA,OVC,0.00,WeatherDisplay:10.37,2013-01-14 22:19:00,
2013-01-14 15:24:00,15.5,3.3,30.01,South,184,10.4,10.4,58,0.00,-RA,OVC,0.00,WeatherDisplay:10.37,2013-01-14 22:24:00,
2013-01-14 15:29:00,15.7,3.1,30.01,WSW,237,6.9,6.9,57,0.00,-RA,OVC,0.00,WeatherDisplay:10.37,2013-01-14 22:29:00,
2013-01-14 15:34:00,15.7,3.1,30.01,SW,229,5.8,5.8,57,0.00,-RA,OVC,0.00,WeatherDisplay:10.37,2013-01-14 22:34:00,
2013-01-14 15:39:00,15.5,3.0,30.01,WSW,239,6.9,6.9,57,0.00,-RA,OVC,0.00,WeatherDisplay:10.37,2013-01-14 22:39:00,
2013-01-14 15:44:00,15.4,2.9,30.01,SW,234,3.5,3.5,57,0.00,-RA,OVC,0.00,WeatherDisplay:10.37,2013-01-14 22:44:00,
2013-01-14 15:49:00,15.4,2.9,30.01,SW,217,3.5,3.5,57,0.00,-RA,OVC,0.00,WeatherDisplay:10.37,2013-01-14 22:49:00,
2013-01-14 15:54:00,15.4,3.2,30.01,SW,216,3.5,3.5,58,0.00,-RA,OVC,0.00,WeatherDisplay:10.37,2013-01-14 22:54:00,
2013-01-14 15:59:00,15.4,2.5,30.01,South,189,4.6,4.6,56,0.00,-RA,OVC,0.00,WeatherDisplay:10.37,2013-01-14 22:59:00,
2013-01-14 16:04:00,15.0,2.5,30.01,South,169,3.5,3.5,57,0.00,-RA,OVC,0.00,WeatherDisplay:10.37,2013-01-14 23:04:00,
2013-01-14 16:09:00,14.8,2.3,30.01,SSW,192,7.0,7.0,57,0.00,-RA,OVC,0.00,WeatherDisplay:10.37,2013-01-14 23:09:00,
2013-01-14 16:14:00,14.3,1.8,30.01,South,186,3.5,3.5,57,0.00,-RA,OVC,0.00,WeatherDisplay:10.37,2013-01-14 23:14:00,
2013-01-14 16:19:00,14.1,2.0,30.01,SSW,194,3.5,3.5,58,0.00,-RA,OVC,0.00,WeatherDisplay:10.37,2013-01-14 23:19:00,
2013-01-14 16:24:00,14.0,1.9,30.01,South,173,5.8,5.8,58,0.00,-RA,OVC,0.00,WeatherDisplay:10.37,2013-01-14 23:24:00,
2013-01-14 16:29:00,13.9,1.8,30.01,South,176,4.6,4.6,58,0.00,-RA,OVC,0.00,WeatherDisplay:10.37,2013-01-14 23:29:00,
2013-01-14 16:34:00,13.6,1.9,30.01,South,185,3.5,3.5,59,0.00,-RA,OVC,0.00,WeatherDisplay:10.37,2013-01-14 23:34:00,
2013-01-14 16:39:00,13.5,2.2,30.01,South,185,2.3,2.3,60,0.00,-RA,OVC,0.00,WeatherDisplay:10.37,2013-01-14 23:39:00,
2013-01-14 16:44:00,13.4,2.1,30.01,South,186,3.5,3.5,60,0.00,-RA,OVC,0.00,WeatherDisplay:10.37,2013-01-14 23:44:00,
2013-01-14 16:49:00,13.2,2.3,30.01,South,186,3.5,3.5,61,0.00,-RA,OVC,0.00,WeatherDisplay:10.37,2013-01-14 23:49:00,
2013-01-14 16:54:00,13.0,2.1,30.03,South,186,2.3,2.3,61,0.00,-RA,OVC,0.00,WeatherDisplay:10.37,2013-01-14 23:54:00,
2013-01-14 16:59:00,12.8,1.9,30.03,South,186,1.1,0.0,61,0.00,-RA,OVC,0.00,WeatherDisplay:10.37,2013-01-14 23:59:00,
2013-01-14 17:04:00,12.6,1.7,30.03,South,186,0.0,0.0,61,0.00,-RA,OVC,0.00,WeatherDisplay:10.37,2013-01-15 00:04:00,
2013-01-14 17:09:00,12.4,1.5,30.03,South,186,0.0,0.0,61,0.00,-RA,OVC,0.00,WeatherDisplay:10.37,2013-01-15 00:09:00,
2013-01-14 17:14:00,12.3,1.7,30.03,South,186,2.3,2.3,62,0.00,-RA,OVC,0.00,WeatherDisplay:10.37,2013-01-15 00:14:00,
2013-01-14 17:19:00,12.1,1.6,30.03,South,186,2.3,2.3,62,0.00,-RA,OVC,0.00,WeatherDisplay:10.37,2013-01-15 00:19:00,
2013-01-14 17:24:00,12.0,1.5,30.03,South,186,0.0,0.0,62,0.00,-RA,OVC,0.00,WeatherDisplay:10.37,2013-01-15 00:24:00,
2013-01-14 17:29:00,11.9,1.0,30.03,South,186,0.0,0.0,61,0.00,-RA,OVC,0.00,WeatherDisplay:10.37,2013-01-15 00:29:00,
2013-01-14 17:34:00,11.7,0.8,30.03,South,186,2.3,2.3,61,0.00,-RA,OVC,0.00,WeatherDisplay:10.37,2013-01-15 00:34:00,
2013-01-14 17:39:00,11.7,0.8,30.03,South,186,0.0,0.0,61,0.00,-RA,OVC,0.00,WeatherDisplay:10.37,2013-01-15 00:39:00,
2013-01-14 17:44:00,11.7,0.8,30.03,South,186,0.0,0.0,61,0.00,-RA,OVC,0.00,WeatherDisplay:10.37,2013-01-15 00:44:00,
2013-01-14 17:49:00,11.6,0.7,30.03,South,186,0.0,0.0,61,0.00,-RA,OVC,0.00,WeatherDisplay:10.37,2013-01-15 00:49:00,
2013-01-14 17:54:00,11.4,0.5,30.04,South,186,0.0,0.0,61,0.00,-RA,OVC,0.00,WeatherDisplay:10.37,2013-01-15 00:54:00,
2013-01-14 17:59:00,11.4,0.5,30.04,South,186,0.0,0.0,61,0.00,-RA,OVC,0.00,WeatherDisplay:10.37,2013-01-15 00:59:00,
2013-01-14 18:04:00,11.3,0.4,30.04,South,186,0.0,0.0,61,0.00,-RA,OVC,0.00,WeatherDisplay:10.37,2013-01-15 01:04:00,
2013-01-14 18:09:00,11.3,0.4,30.04,South,186,1.1,1.1,61,0.00,-RA,OVC,0.00,WeatherDisplay:10.37,2013-01-15 01:09:00,
2013-01-14 18:14:00,11.2,0.4,30.04,South,186,1.1,1.1,61,0.00,-RA,OVC,0.00,WeatherDisplay:10.37,2013-01-15 01:14:00,
2013-01-14 18:19:00,11.0,0.5,30.04,South,186,0.0,0.0,62,0.00,-RA,OVC,0.00,WeatherDisplay:10.37,2013-01-15 01:19:00,
2013-01-14 18:24:00,10.9,0.4,30.05,South,186,0.0,0.0,62,0.00,-RA,OVC,0.00,WeatherDisplay:10.37,2013-01-15 01:24:00,
2013-01-14 18:29:00,10.8,0.7,30.05,South,186,0.0,0.0,63,0.00,-RA,OVC,0.00,WeatherDisplay:10.37,2013-01-15 01:29:00,
2013-01-14 18:34:00,10.6,0.5,30.05,South,186,0.0,0.0,63,0.00,-RA,OVC,0.00,WeatherDisplay:10.37,2013-01-15 01:34:00,
2013-01-14 18:39:00,10.3,0.5,30.05,South,186,0.0,0.0,64,0.00,-RA,OVC,0.00,WeatherDisplay:10.37,2013-01-15 01:39:00,
2013-01-14 18:44:00,10.0,0.6,30.04,South,186,0.0,0.0,65,0.00,-RA,OVC,0.00,WeatherDisplay:10.37,2013-01-15 01:44:00,
2013-01-14 18:49:00,9.8,0.4,30.04,South,186,0.0,0.0,65,0.00,-RA,OVC,0.00,WeatherDisplay:10.37,2013-01-15 01:49:00,
2013-01-14 18:54:00,9.4,0.0,30.04,South,186,0.0,0.0,65,0.00,-RA,OVC,0.00,WeatherDisplay:10.37,2013-01-15 01:54:00,
2013-01-14 18:59:00,9.2,0.1,30.04,South,186,0.0,0.0,66,0.00,-RA,OVC,0.00,WeatherDisplay:10.37,2013-01-15 01:59:00,
2013-01-14 19:04:00,9.1,0.4,30.04,South,186,0.0,0.0,67,0.00,-RA,OVC,0.00,WeatherDisplay:10.37,2013-01-15 02:04:00,
2013-01-14 19:09:00,8.9,0.2,30.04,South,186,0.0,0.0,67,0.00,-RA,OVC,0.00,WeatherDisplay:10.37,2013-01-15 02:09:00,
2013-01-14 19:14:00,8.6,0.2,30.04,South,186,0.0,0.0,68,0.00,-RA,OVC,0.00,WeatherDisplay:10.37,2013-01-15 02:14:00,
2013-01-14 19:19:00,8.4,0.0,30.04,South,186,0.0,0.0,68,0.00,-RA,OVC,0.00,WeatherDisplay:10.37,2013-01-15 02:19:00,
2013-01-14 19:24:00,8.2,0.1,30.04,South,186,0.0,0.0,69,0.00,-RA,OVC,0.00,WeatherDisplay:10.37,2013-01-15 02:24:00,
2013-01-14 19:29:00,8.2,0.1,30.04,South,186,0.0,0.0,69,0.00,-RA,OVC,0.00,WeatherDisplay:10.37,2013-01-15 02:29:00,
2013-01-14 19:34:00,8.1,0.3,30.04,South,186,0.0,0.0,70,0.00,-RA,OVC,0.00,WeatherDisplay:10.37,2013-01-15 02:34:00,
2013-01-14 19:39:00,8.0,-0.1,30.04,South,186,0.0,0.0,69,0.00,-RA,OVC,0.00,WeatherDisplay:10.37,2013-01-15 02:39:00,
2013-01-14 19:44:00,7.9,-0.2,30.04,South,186,0.0,0.0,69,0.00,-RA,OVC,0.00,WeatherDisplay:10.37,2013-01-15 02:44:00,
2013-01-14 19:49:00,7.7,-0.4,30.04,South,186,0.0,0.0,69,0.00,-RA,OVC,0.00,WeatherDisplay:10.37,2013-01-15 02:49:00,
2013-01-14 19:54:00,7.6,-0.8,30.04,South,186,0.0,0.0,68,0.00,-RA,OVC,0.00,WeatherDisplay:10.37,2013-01-15 02:54:00,
2013-01-14 19:59:00,7.4,-0.6,30.04,South,186,0.0,0.0,69,0.00,-RA,OVC,0.00,WeatherDisplay:10.37,2013-01-15 02:59:00,
2013-01-14 20:04:00,7.3,-0.7,30.04,South,186,0.0,0.0,69,0.00,-RA,OVC,0.00,WeatherDisplay:10.37,2013-01-15 03:04:00,
2013-01-14 20:09:00,7.2,-0.8,30.04,South,186,0.0,0.0,69,0.00,-RA,OVC,0.00,WeatherDisplay:10.37,2013-01-15 03:09:00,
2013-01-14 20:14:00,6.9,-1.1,30.03,South,186,0.0,0.0,69,0.00,-RA,OVC,0.00,WeatherDisplay:10.37,2013-01-15 03:14:00,
2013-01-14 20:19:00,6.6,-1.4,30.03,South,186,0.0,0.0,69,0.00,-RA,OVC,0.00,WeatherDisplay:10.37,2013-01-15 03:19:00,
2013-01-14 20:24:00,6.4,-1.3,30.03,South,186,0.0,0.0,70,0.00,-RA,OVC,0.00,WeatherDisplay:10.37,2013-01-15 03:24:00,
2013-01-14 20:29:00,6.1,-1.6,30.03,South,186,0.0,0.0,70,0.00,-RA,OVC,0.00,WeatherDisplay:10.37,2013-01-15 03:29:00,
2013-01-14 20:34:00,5.8,-1.9,30.03,South,186,0.0,0.0,70,0.00,-RA,OVC,0.00,WeatherDisplay:10.37,2013-01-15 03:34:00,
2013-01-14 20:39:00,5.6,-1.8,30.03,South,186,0.0,0.0,71,0.00,-RA,OVC,0.00,WeatherDisplay:10.37,2013-01-15 03:39:00,
2013-01-14 20:44:00,5.5,-1.9,30.03,South,186,0.0,0.0,71,0.00,-RA,OVC,0.00,WeatherDisplay:10.37,2013-01-15 03:44:00,
2013-01-14 20:49:00,5.3,-2.1,30.03,South,186,0.0,0.0,71,0.00,-RA,OVC,0.00,WeatherDisplay:10.37,2013-01-15 03:49:00,
2013-01-14 20:54:00,5.2,-1.9,30.03,South,186,0.0,0.0,72,0.00,-RA,OVC,0.00,WeatherDisplay:10.37,2013-01-15 03:54:00,
2013-01-14 20:59:00,4.9,-2.2,30.03,South,186,0.0,0.0,72,0.00,-RA,OVC,0.00,WeatherDisplay:10.37,2013-01-15 03:59:00,
2013-01-14 21:04:00,4.7,-2.1,30.03,South,186,0.0,0.0,73,0.00,-RA,OVC,0.00,WeatherDisplay:10.37,2013-01-15 04:04:00,
2013-01-14 21:09:00,4.5,-2.3,30.03,South,186,0.0,0.0,73,0.00,-RA,OVC,0.00,WeatherDisplay:10.37,2013-01-15 04:09:00,
2013-01-14 21:14:00,4.5,-2.0,30.02,South,186,0.0,0.0,74,0.00,-RA,OVC,0.00,WeatherDisplay:10.37,2013-01-15 04:14:00,
2013-01-14 21:19:00,4.4,-2.1,30.02,South,186,0.0,0.0,74,0.00,-RA,OVC,0.00,WeatherDisplay:10.37,2013-01-15 04:19:00,
2013-01-14 21:24:00,4.4,-2.1,30.02,South,186,0.0,0.0,74,0.00,-RA,OVC,0.00,WeatherDisplay:10.37,2013-01-15 04:24:00,
2013-01-14 21:29:00,4.4,-2.1,30.02,South,186,1.1,0.0,74,0.00,-RA,OVC,0.00,WeatherDisplay:10.37,2013-01-15 04:29:00,
2013-01-14 21:34:00,4.3,-2.2,30.02,South,186,0.0,0.0,74,0.00,-RA,OVC,0.00,WeatherDisplay:10.37,2013-01-15 04:34:00,
2013-01-14 21:39:00,4.3,-2.2,30.02,South,186,0.0,0.0,74,0.00,-RA,OVC,0.00,WeatherDisplay:10.37,2013-01-15 04:39:00,
2013-01-14 21:44:00,4.3,-2.2,30.01,South,186,0.0,0.0,74,0.00,-RA,OVC,0.00,WeatherDisplay:10.37,2013-01-15 04:44:00,
2013-01-14 21:49:00,4.3,-2.4,30.01,South,186,0.0,0.0,73,0.00,-RA,OVC,0.00,WeatherDisplay:10.37,2013-01-15 04:49:00,
2013-01-14 21:54:00,4.2,-2.5,30.01,South,186,0.0,0.0,73,0.00,-RA,OVC,0.00,WeatherDisplay:10.37,2013-01-15 04:54:00,
2013-01-14 21:59:00,4.0,-2.7,30.01,South,186,0.0,0.0,73,0.00,-RA,OVC,0.00,WeatherDisplay:10.37,2013-01-15 04:59:00,
2013-01-14 22:00:00,4.0,-2.4,30.01,South,186,0.0,0.0,74,0.00,-RA,OVC,0.00,WeatherDisplay:10.37,2013-01-15 05:00:00,
2013-01-14 22:01:00,4.0,-2.4,30.01,South,186,0.0,0.0,74,0.00,-RA,OVC,0.00,WeatherDisplay:10.37,2013-01-15 05:01:00,
2013-01-14 22:03:00,3.9,-2.5,30.01,South,186,0.0,0.0,74,0.00,-RA,OVC,0.00,WeatherDisplay:10.37,2013-01-15 05:03:00,
2013-01-14 22:08:00,3.8,-2.9,30.01,South,186,0.0,0.0,73,0.00,-RA,OVC,0.00,WeatherDisplay:10.37,2013-01-15 05:08:00,
2013-01-14 22:13:00,3.6,-2.6,30.00,South,186,0.0,0.0,75,0.00,-RA,OVC,0.00,WeatherDisplay:10.37,2013-01-15 05:13:00,
2013-01-14 22:18:00,3.5,-2.7,30.00,South,186,0.0,0.0,75,0.00,-RA,OVC,0.00,WeatherDisplay:10.37,2013-01-15 05:18:00,
2013-01-14 22:23:00,3.3,-2.8,30.00,South,186,0.0,0.0,75,0.00,-RA,OVC,0.00,WeatherDisplay:10.37,2013-01-15 05:23:00,
2013-01-14 22:28:00,3.2,-2.7,30.00,South,186,0.0,0.0,76,0.00,-RA,OVC,0.00,WeatherDisplay:10.37,2013-01-15 05:28:00,
2013-01-14 22:33:00,3.3,-2.6,30.00,South,186,0.0,0.0,76,0.00,-RA,OVC,0.00,WeatherDisplay:10.37,2013-01-15 05:33:00,
2013-01-14 22:38:00,3.3,-2.8,30.00,South,186,0.0,0.0,75,0.00,-RA,OVC,0.00,WeatherDisplay:10.37,2013-01-15 05:38:00,
2013-01-14 22:43:00,3.3,-3.1,30.00,South,186,0.0,0.0,74,0.00,-RA,OVC,0.00,WeatherDisplay:10.37,2013-01-15 05:43:00,
2013-01-14 22:48:00,3.2,-3.2,30.00,South,186,0.0,0.0,74,0.00,-RA,OVC,0.00,WeatherDisplay:10.37,2013-01-15 05:48:00,
2013-01-14 22:53:00,3.1,-3.0,30.00,South,186,0.0,0.0,75,0.00,-RA,OVC,0.00,WeatherDisplay:10.37,2013-01-15 05:53:00,
2013-01-14 22:58:00,2.9,-3.2,30.00,South,186,0.0,0.0,75,0.00,-RA,OVC,0.00,WeatherDisplay:10.37,2013-01-15 05:58:00,
2013-01-14 23:03:00,2.8,-3.3,30.00,South,186,0.0,0.0,75,0.00,-RA,OVC,0.00,WeatherDisplay:10.37,2013-01-15 06:03:00,
2013-01-14 23:08:00,2.7,-3.4,30.00,South,186,0.0,0.0,75,0.00,-RA,OVC,0.00,WeatherDisplay:10.37,2013-01-15 06:08:00,
2013-01-14 23:13:00,2.6,-3.5,30.00,South,186,0.0,0.0,75,0.00,-RA,OVC,0.00,WeatherDisplay:10.37,2013-01-15 06:13:00,
2013-01-14 23:18:00,2.4,-4.0,30.00,South,186,0.0,0.0,74,0.00,-RA,OVC,0.00,WeatherDisplay:10.37,2013-01-15 06:18:00,
2013-01-14 23:23:00,2.1,-4.0,30.00,South,186,0.0,0.0,75,0.00,-RA,OVC,0.00,WeatherDisplay:10.37,2013-01-15 06:23:00,
2013-01-14 23:28:00,1.9,-4.2,30.00,South,186,0.0,0.0,75,0.00,-RA,OVC,0.00,WeatherDisplay:10.37,2013-01-15 06:28:00,
2013-01-14 23:33:00,1.7,-4.1,30.00,South,186,0.0,0.0,76,0.00,-RA,OVC,0.00,WeatherDisplay:10.37,2013-01-15 06:33:00,
2013-01-14 23:38:00,1.5,-4.3,30.00,South,186,0.0,0.0,76,0.00,-RA,OVC,0.00,WeatherDisplay:10.37,2013-01-15 06:38:00,
2013-01-14 23:43:00,1.4,-4.1,30.00,South,186,0.0,0.0,77,0.00,-RA,OVC,0.00,WeatherDisplay:10.37,2013-01-15 06:43:00,
2013-01-14 23:48:00,1.3,-4.2,30.00,South,186,0.0,0.0,77,0.00,-RA,OVC,0.00,WeatherDisplay:10.37,2013-01-15 06:48:00,
2013-01-14 23:53:00,1.3,-4.2,30.00,South,186,0.0,0.0,77,0.00,-RA,OVC,0.00,WeatherDisplay:10.37,2013-01-15 06:53:00,
2013-01-14 23:58:00,1.1,-4.4,30.00,South,186,0.0,0.0,77,0.00,-RA,OVC,0.00,WeatherDisplay:10.37,2013-01-15 06:58:00,